createdAt,value
2018-04-13T00:01:52.579Z,70.80
2018-04-13T00:04:25.956Z,71.20
2018-04-13T00:06:58.600Z,71.10
2018-04-13T00:09:31.205Z,71.30
2018-04-13T00:12:03.852Z,71.20
2018-04-13T00:14:36.456Z,71.20
2018-04-13T00:17:09.871Z,71.90
2018-04-13T00:19:43.284Z,72.00
2018-04-13T00:22:15.917Z,71.90
2018-04-13T00:24:48.537Z,72.30
2018-04-13T00:27:21.960Z,72.10
2018-04-13T00:29:55.336Z,72.00
2018-04-13T00:32:27.981Z,72.00
2018-04-13T00:35:00.586Z,72.60
2018-04-13T00:37:33.238Z,72.30
2018-04-13T00:40:05.855Z,72.70
2018-04-13T00:42:38.495Z,72.50
2018-04-13T00:45:11.103Z,73.00
2018-04-13T00:47:43.752Z,72.70
2018-04-13T00:50:16.355Z,73.40
2018-04-13T00:53:00.848Z,73.50
2018-04-13T00:55:33.453Z,73.20
2018-04-13T00:58:06.104Z,73.30
2018-04-13T01:00:38.708Z,73.50
2018-04-13T01:03:11.334Z,73.50
2018-04-13T01:05:43.940Z,73.40
2018-04-13T01:08:17.348Z,73.30
2018-04-13T01:10:50.725Z,74.00
2018-04-13T01:13:23.428Z,74.00
2018-04-13T01:15:56.203Z,74.30
2018-04-13T01:21:38.874Z,74.50
2018-04-13T01:24:12.387Z,74.80
2018-04-13T01:26:44.996Z,74.70
2018-04-13T01:29:17.632Z,75.10
2018-04-13T01:31:50.245Z,75.10
2018-04-13T01:34:22.881Z,75.80
2018-04-13T01:36:56.256Z,75.70
2018-04-13T01:39:28.885Z,75.60
2018-04-13T01:42:02.269Z,75.30
2018-04-13T01:44:34.896Z,75.10
2018-04-13T01:47:08.280Z,75.60
2018-04-13T01:49:40.923Z,75.60
2018-04-13T01:52:13.531Z,76.10
2018-04-13T01:54:46.180Z,75.70
2018-04-13T01:57:19.551Z,76.20
2018-04-13T01:59:52.175Z,76.10
2018-04-13T02:02:25.551Z,76.10
2018-04-13T02:04:58.205Z,76.10
2018-04-13T02:07:30.816Z,76.10
2018-04-13T02:10:03.473Z,76.50
2018-04-13T02:12:36.232Z,76.50
2018-04-13T02:15:09.749Z,76.60
2018-04-13T02:17:43.187Z,76.60
2018-04-13T02:20:15.830Z,76.60
2018-04-13T02:22:48.435Z,76.50
2018-04-13T02:25:21.079Z,76.50
2018-04-13T02:27:53.679Z,76.10
2018-04-13T02:30:26.308Z,76.50
2018-04-13T02:32:58.929Z,76.50
2018-04-13T02:35:32.320Z,76.70
2018-04-13T02:38:04.925Z,76.60
2018-04-13T02:40:38.339Z,77.30
2018-04-13T02:43:11.708Z,76.50
2018-04-13T02:45:44.354Z,76.50
2018-04-13T02:48:16.960Z,77.20
2018-04-13T02:50:49.588Z,77.30
2018-04-13T02:53:22.188Z,77.30
2018-04-13T02:55:54.832Z,77.60
2018-04-13T02:58:27.436Z,76.40
2018-04-13T03:01:00.082Z,76.50
2018-04-13T03:03:33.450Z,77.60
2018-04-13T03:06:06.103Z,77.60
2018-04-13T03:08:38.705Z,77.80
2018-04-13T03:11:11.351Z,77.80
2018-04-13T03:13:43.956Z,77.60
2018-04-13T03:16:17.368Z,77.60
2018-04-13T03:18:50.756Z,77.80
2018-04-13T03:21:23.384Z,77.70
2018-04-13T03:23:55.992Z,77.70
2018-04-13T03:26:28.643Z,78.00
2018-04-13T03:29:01.249Z,77.50
2018-04-13T03:31:34.662Z,77.80
2018-04-13T03:34:08.028Z,78.20
2018-04-13T03:36:40.652Z,78.20
2018-04-13T03:39:14.021Z,78.20
2018-04-13T03:41:46.648Z,78.20
2018-04-13T03:44:19.255Z,78.00
2018-04-13T03:46:52.647Z,78.30
2018-04-13T03:49:25.272Z,78.30
2018-04-13T03:51:57.892Z,78.20
2018-04-13T03:54:30.518Z,77.80
2018-04-13T03:57:03.919Z,78.10
2018-04-13T03:59:36.523Z,78.10
2018-04-13T04:02:09.188Z,78.20
2018-04-13T04:04:41.763Z,78.10
2018-04-13T04:07:14.391Z,78.10
2018-04-13T04:09:46.997Z,78.60
2018-04-13T04:12:19.620Z,78.60
2018-04-13T04:14:52.218Z,78.20
2018-04-13T04:17:24.846Z,78.60
2018-04-13T04:20:09.457Z,78.80
2018-04-13T04:22:53.919Z,78.50
2018-04-13T04:25:39.190Z,78.90
2018-04-13T04:28:11.820Z,78.80
2018-04-13T04:30:44.439Z,78.80
2018-04-13T04:33:17.087Z,78.90
2018-04-13T04:35:50.742Z,78.10
2018-04-13T04:38:45.920Z,78.70
2018-04-13T04:41:19.300Z,79.80
2018-04-13T04:43:51.925Z,79.00
2018-04-13T04:46:25.296Z,79.10
2018-04-13T04:48:57.949Z,79.10
2018-04-13T04:51:31.323Z,79.60
2018-04-13T04:54:04.735Z,79.30
2018-04-13T04:56:38.104Z,79.40
2018-04-13T04:59:10.747Z,79.40
2018-04-13T05:01:43.383Z,80.70
2018-04-13T05:04:18.226Z,80.90
2018-04-13T05:06:50.828Z,81.60
2018-04-13T05:09:23.549Z,82.70
2018-04-13T05:11:56.177Z,81.70
2018-04-13T05:14:28.805Z,82.30
2018-04-13T05:17:01.430Z,82.60
2018-04-13T05:19:35.515Z,81.50
2018-04-13T05:22:08.961Z,83.70
2018-04-13T05:24:42.813Z,82.90
2018-04-13T05:27:15.445Z,82.70
2018-04-13T05:29:48.108Z,82.80
2018-04-13T05:32:20.898Z,83.40
2018-04-13T05:34:56.624Z,82.40
2018-04-13T05:37:30.152Z,83.70
2018-04-13T05:40:03.552Z,83.50
2018-04-13T05:42:36.920Z,83.30
2018-04-13T05:45:09.561Z,83.30
2018-04-13T05:47:42.179Z,83.50
2018-04-13T05:50:14.872Z,83.50
2018-04-13T05:52:47.491Z,83.50
2018-04-13T05:55:20.144Z,82.70
2018-04-13T05:57:52.748Z,83.20
2018-04-13T06:00:25.424Z,83.00
2018-04-13T06:02:58.027Z,83.20
2018-04-13T06:05:30.673Z,82.00
2018-04-13T06:08:03.288Z,82.60
2018-04-13T06:10:36.700Z,81.80
2018-04-13T06:13:10.075Z,82.00
2018-04-13T06:15:42.751Z,81.20
2018-04-13T06:18:15.372Z,80.90
2018-04-13T06:20:48.020Z,80.80
2018-04-13T06:23:20.632Z,80.80
2018-04-13T06:25:53.259Z,81.30
2018-04-13T06:28:26.640Z,81.50
2018-04-13T06:30:59.292Z,81.50
2018-04-13T06:33:31.899Z,81.90
2018-04-13T06:36:04.528Z,81.80
2018-04-13T06:38:37.132Z,81.60
2018-04-13T06:41:10.548Z,82.30
2018-04-13T06:43:43.993Z,82.80
2018-04-13T06:46:17.371Z,83.00
2018-04-13T06:48:50.834Z,84.00
2018-04-13T06:51:24.173Z,84.40
2018-04-13T06:53:56.776Z,84.40
2018-04-13T06:56:30.200Z,85.40
2018-04-13T06:59:02.818Z,85.30
2018-04-13T07:01:35.453Z,84.00
2018-04-13T07:04:08.060Z,84.60
2018-04-13T07:06:41.477Z,84.00
2018-04-13T07:09:14.100Z,84.60
2018-04-13T07:11:46.752Z,84.30
2018-04-13T07:14:20.140Z,85.00
2018-04-13T07:16:52.835Z,84.90
2018-04-13T07:19:25.448Z,84.60
2018-04-13T07:21:58.863Z,84.60
2018-04-13T07:24:32.245Z,85.20
2018-04-13T07:27:04.895Z,85.20
2018-04-13T07:29:37.505Z,84.50
2018-04-13T07:32:10.162Z,84.80
2018-04-13T07:34:42.780Z,84.60
2018-04-13T07:37:15.785Z,83.30
2018-04-13T07:39:48.803Z,84.20
2018-04-13T07:42:21.444Z,84.30
2018-04-13T07:44:54.121Z,84.20
2018-04-13T07:47:26.727Z,84.50
2018-04-13T07:49:59.570Z,84.40
2018-04-13T07:52:32.023Z,84.20
2018-04-13T07:55:04.638Z,85.50
2018-04-13T07:57:37.291Z,84.90
2018-04-13T08:00:09.908Z,85.20
2018-04-13T08:02:42.562Z,86.90
2018-04-13T08:05:15.204Z,87.40
2018-04-13T08:07:47.831Z,88.40
2018-04-13T08:10:20.440Z,89.00
2018-04-13T08:12:53.859Z,87.80
2018-04-13T08:15:26.801Z,87.50
2018-04-13T08:17:59.206Z,89.30
2018-04-13T08:20:31.779Z,88.60
2018-04-13T08:23:04.427Z,88.60
2018-04-13T08:25:37.065Z,88.00
2018-04-13T08:28:09.729Z,87.00
2018-04-13T08:30:42.380Z,86.30
2018-04-13T08:33:15.036Z,86.10
2018-04-13T08:35:47.655Z,85.20
2018-04-13T08:38:20.335Z,85.20
2018-04-13T08:40:52.931Z,85.00
2018-04-13T08:43:25.576Z,84.80
2018-04-13T08:45:58.189Z,84.90
2018-04-13T08:48:45.169Z,83.60
2018-04-13T08:51:17.666Z,83.50
2018-04-13T08:53:50.318Z,83.40
2018-04-13T08:56:22.940Z,83.30
2018-04-13T08:58:56.360Z,84.30
2018-04-13T09:01:29.739Z,84.50
2018-04-13T09:04:02.398Z,84.40
2018-04-13T09:06:35.034Z,84.30
2018-04-13T09:09:08.456Z,83.20
2018-04-13T09:11:41.841Z,82.50
2018-04-13T09:14:14.491Z,82.40
2018-04-13T09:16:47.117Z,83.00
2018-04-13T09:19:19.757Z,81.50
2018-04-13T09:21:52.366Z,81.50
2018-04-13T09:24:25.024Z,81.30
2018-04-13T09:26:58.408Z,81.60
2018-04-13T09:29:31.055Z,81.60
2018-04-13T09:32:03.676Z,80.80
2018-04-13T09:34:36.329Z,80.40
2018-04-13T09:37:08.939Z,80.40
2018-04-13T09:39:41.569Z,80.50
2018-04-13T09:42:14.203Z,80.40
2018-04-13T09:44:46.864Z,80.10
2018-04-13T09:47:19.476Z,80.10
2018-04-13T09:49:52.133Z,80.40
2018-04-13T09:52:24.745Z,78.90
2018-04-13T09:54:58.176Z,78.50
2018-04-13T09:57:30.805Z,78.30
2018-04-13T10:00:03.452Z,78.60
2018-04-13T10:02:38.021Z,78.30
2018-04-13T10:05:16.624Z,77.60
2018-04-13T10:07:49.234Z,77.80
2018-04-13T10:10:21.877Z,77.60
2018-04-13T10:12:54.492Z,77.40
2018-04-13T10:15:27.115Z,78.70
2018-04-13T10:17:59.724Z,79.20
2018-04-13T10:20:32.377Z,78.70
2018-04-13T10:23:05.008Z,78.10
2018-04-13T10:25:37.643Z,77.60
2018-04-13T10:28:11.012Z,76.20
2018-04-13T10:30:43.665Z,76.20
2018-04-13T10:33:16.271Z,76.40
2018-04-13T10:35:48.923Z,75.60
2018-04-13T10:38:22.298Z,75.30
2018-04-13T10:40:54.946Z,75.20
2018-04-13T10:43:27.553Z,74.10
2018-04-13T10:46:00.213Z,75.40
2018-04-13T10:48:33.595Z,74.80
2018-04-13T10:51:06.233Z,74.70
2018-04-13T10:53:38.839Z,74.50
2018-04-13T10:56:11.511Z,75.00
2018-04-13T10:58:44.130Z,74.10
2018-04-13T11:01:16.802Z,73.70
2018-04-13T11:03:49.413Z,73.30
2018-04-13T11:06:22.060Z,73.10
2018-04-13T11:08:55.437Z,73.30
2018-04-13T11:11:28.091Z,73.30
2018-04-13T11:14:00.736Z,73.80
2018-04-13T11:16:33.388Z,72.90
2018-04-13T11:19:06.000Z,73.60
2018-04-13T11:21:38.637Z,73.00
2018-04-13T11:24:12.008Z,72.40
2018-04-13T11:26:44.712Z,72.40
2018-04-13T11:29:17.343Z,73.30
2018-04-13T11:31:50.012Z,73.70
2018-04-13T11:34:23.384Z,74.20
2018-04-13T11:36:56.031Z,74.10
2018-04-13T11:39:28.636Z,74.40
2018-04-13T11:42:01.264Z,75.40
2018-04-13T11:44:33.872Z,76.80
2018-04-13T11:47:06.529Z,76.40
2018-04-13T11:49:39.132Z,78.10
2018-04-13T11:52:11.762Z,77.70
2018-04-13T11:54:45.153Z,80.10
2018-04-13T11:57:17.848Z,80.00
2018-04-13T11:59:51.251Z,80.00
2018-04-13T12:02:23.924Z,79.90
2018-04-13T12:04:56.511Z,78.00
2018-04-13T12:07:29.148Z,78.40
2018-04-13T12:10:02.523Z,79.30
2018-04-13T12:12:35.172Z,79.20
2018-04-13T12:15:07.776Z,80.00
2018-04-13T12:17:40.424Z,80.80
2018-04-13T12:20:13.030Z,80.20
2018-04-13T12:22:46.494Z,80.90
2018-04-13T12:25:19.121Z,80.80
2018-04-13T12:27:51.764Z,80.60
2018-04-13T12:30:24.372Z,80.30
2018-04-13T12:32:57.003Z,79.40
2018-04-13T12:35:30.377Z,78.90
2018-04-13T12:38:03.039Z,78.90
2018-04-13T12:40:35.647Z,79.30
2018-04-13T12:43:08.302Z,80.70
2018-04-13T12:45:40.920Z,80.00
2018-04-13T12:48:13.597Z,79.20
2018-04-13T12:50:46.226Z,77.80
2018-04-13T12:53:18.953Z,75.20
2018-04-13T12:55:51.540Z,76.80
2018-04-13T12:58:24.196Z,76.10
2018-04-13T13:00:56.825Z,75.00
2018-04-13T13:03:29.541Z,74.70
2018-04-13T13:06:02.171Z,74.70
2018-04-13T13:08:35.063Z,73.70
2018-04-13T13:11:07.725Z,71.80
2018-04-13T13:13:40.365Z,72.40
2018-04-13T13:16:12.999Z,72.40
2018-04-13T13:18:46.426Z,68.90
2018-04-13T13:21:19.044Z,68.80
2018-04-13T13:23:51.688Z,69.70
2018-04-13T13:26:24.323Z,67.80
2018-04-13T13:28:56.972Z,67.40
2018-04-13T13:31:30.349Z,66.70
2018-04-13T13:34:03.043Z,66.70
2018-04-13T13:36:35.681Z,64.80
2018-04-13T13:39:08.871Z,64.80
2018-04-13T13:41:42.272Z,62.40
2018-04-13T13:44:14.931Z,62.20
2018-04-13T13:46:47.552Z,62.90
2018-04-13T13:49:20.196Z,63.30
2018-04-13T13:51:52.831Z,62.50
2018-04-13T13:54:25.508Z,61.90
2018-04-13T13:56:58.108Z,61.50
2018-04-13T13:59:30.740Z,60.50
2018-04-13T14:02:04.116Z,60.00
2018-04-13T14:04:36.757Z,59.90
2018-04-13T14:07:09.366Z,60.20
2018-04-13T14:09:41.988Z,59.60
2018-04-13T14:12:14.588Z,59.50
2018-04-13T14:14:47.267Z,60.20
2018-04-13T14:17:19.876Z,61.40
2018-04-13T14:19:52.505Z,61.40
2018-04-13T14:22:25.107Z,61.30
2018-04-13T14:24:57.754Z,60.00
2018-04-13T14:27:30.368Z,60.00
2018-04-13T14:30:03.006Z,59.20
2018-04-13T14:32:35.615Z,59.60
2018-04-13T14:35:08.257Z,59.80
2018-04-13T14:37:40.857Z,59.60
2018-04-13T14:40:13.487Z,58.30
2018-04-13T14:42:46.096Z,59.40
2018-04-13T14:45:18.736Z,57.80
2018-04-13T14:47:58.412Z,58.00
2018-04-13T14:50:31.040Z,58.00
2018-04-13T14:53:04.452Z,58.40
2018-04-13T14:55:37.863Z,58.50
2018-04-13T14:58:11.233Z,57.60
2018-04-13T15:00:43.947Z,57.60
2018-04-13T15:03:17.352Z,57.80
2018-04-13T15:05:49.976Z,58.20
2018-04-13T15:08:23.387Z,57.40
2018-04-13T15:10:56.044Z,57.40
2018-04-13T15:13:29.641Z,57.70
2018-04-13T15:16:02.339Z,58.00
2018-04-13T15:18:37.964Z,58.60
2018-04-13T15:21:11.475Z,58.00
2018-04-13T15:23:44.083Z,58.00
2018-04-13T15:26:16.732Z,59.10
2018-04-13T15:28:50.130Z,59.20
2018-04-13T15:31:22.779Z,59.20
2018-04-13T15:33:55.383Z,59.00
2018-04-13T15:36:28.008Z,59.90
2018-04-13T15:39:00.628Z,59.10
2018-04-13T15:41:33.260Z,59.00
2018-04-13T15:44:05.888Z,59.40
2018-04-13T15:46:39.304Z,58.70
2018-04-13T15:49:12.671Z,57.90
2018-04-13T15:51:45.328Z,57.90
2018-04-13T15:54:17.954Z,57.20
2018-04-13T15:56:50.598Z,57.20
2018-04-13T15:59:24.292Z,58.10
2018-04-13T16:01:56.917Z,57.60
2018-04-13T16:04:29.525Z,57.20
2018-04-13T16:07:02.964Z,57.40
2018-04-13T16:09:35.575Z,57.40
2018-04-13T16:12:08.274Z,56.50
2018-04-13T16:14:40.873Z,56.50
2018-04-13T16:17:14.280Z,57.40
2018-04-13T16:19:47.676Z,57.80
2018-04-13T16:22:20.302Z,57.80
2018-04-13T16:24:52.919Z,56.20
2018-04-13T16:27:25.546Z,56.10
2018-04-13T16:29:58.148Z,56.80
2018-04-13T16:32:30.784Z,57.20
2018-04-13T16:35:03.400Z,56.70
2018-04-13T16:37:36.048Z,57.50
2018-04-13T16:40:08.652Z,58.00
2018-04-13T16:42:41.311Z,56.70
2018-04-13T16:45:14.697Z,57.40
2018-04-13T16:47:47.370Z,57.40
2018-04-13T16:50:32.829Z,57.40
2018-04-13T16:53:05.494Z,58.20
2018-04-13T16:55:38.879Z,57.20
2018-04-13T16:58:11.512Z,57.20
2018-04-13T17:00:44.897Z,57.60
2018-04-13T17:03:17.555Z,57.60
2018-04-13T17:05:50.232Z,57.80
2018-04-13T17:08:22.921Z,57.20
2018-04-13T17:10:57.571Z,57.70
2018-04-13T17:13:32.107Z,56.60
2018-04-13T17:16:04.736Z,56.50
2018-04-13T17:18:37.412Z,56.90
2018-04-13T17:21:10.647Z,57.40
2018-04-13T17:23:43.400Z,57.20
2018-04-13T17:26:16.041Z,57.60
2018-04-13T17:28:49.465Z,57.40
2018-04-13T17:31:22.856Z,57.40
2018-04-13T17:33:55.479Z,57.40
2018-04-13T17:36:28.084Z,58.00
2018-04-13T17:39:00.748Z,58.00
2018-04-13T17:41:34.119Z,58.40
2018-04-13T17:44:06.749Z,58.40
2018-04-13T17:46:40.123Z,59.00
2018-04-13T17:49:12.790Z,58.90
2018-04-13T17:51:45.431Z,59.20
2018-04-13T17:54:18.073Z,59.30
2018-04-13T17:56:50.683Z,59.20
2018-04-13T17:59:23.312Z,59.20
2018-04-13T18:01:55.920Z,59.20
2018-04-13T18:04:28.656Z,59.60
2018-04-13T18:07:01.308Z,59.80
2018-04-13T18:09:34.006Z,60.40
2018-04-13T18:12:06.734Z,59.80
2018-04-13T18:14:39.389Z,59.30
2018-04-13T18:17:12.003Z,59.70
2018-04-13T18:19:44.677Z,59.60
2018-04-13T18:22:17.293Z,59.60
2018-04-13T18:24:50.072Z,59.50
2018-04-13T18:27:22.671Z,60.30
2018-04-13T18:29:55.348Z,59.90
2018-04-13T18:32:27.957Z,60.20
2018-04-13T18:35:00.653Z,60.90
2018-04-13T18:37:33.545Z,61.60
2018-04-13T18:43:04.036Z,62.00
2018-04-13T18:45:36.759Z,62.50
2018-04-13T18:48:09.371Z,62.80
2018-04-13T18:50:42.791Z,61.90
2018-04-13T18:53:16.160Z,62.00
2018-04-13T18:55:48.792Z,62.00
2018-04-13T18:58:22.179Z,61.70
2018-04-13T19:00:55.657Z,61.60
2018-04-13T19:03:28.321Z,61.40
2018-04-13T19:06:01.715Z,59.80
2018-04-13T19:08:34.328Z,59.70
2018-04-13T19:11:06.952Z,58.80
2018-04-13T19:13:39.596Z,59.00
2018-04-13T19:16:12.230Z,60.60
2018-04-13T19:18:44.840Z,62.20
2018-04-13T19:21:17.480Z,64.10
2018-04-13T19:23:50.086Z,65.60
2018-04-13T19:26:22.789Z,66.10
2018-04-13T19:28:55.400Z,66.20
2018-04-13T19:31:28.052Z,67.60
2018-04-13T19:34:00.656Z,66.90
2018-04-13T19:36:33.271Z,67.80
2018-04-13T19:39:05.871Z,68.20
2018-04-13T19:41:38.497Z,67.30
2018-04-13T19:44:12.004Z,67.70
2018-04-13T19:46:45.432Z,68.50
2018-04-13T19:49:18.037Z,68.50
2018-04-13T19:51:50.663Z,69.70
2018-04-13T19:54:26.871Z,70.00
2018-04-13T19:56:59.668Z,69.50
2018-04-13T19:59:33.069Z,68.50
2018-04-13T20:02:06.465Z,68.90
2018-04-13T20:04:39.081Z,68.80
2018-04-13T20:07:11.818Z,70.40
2018-04-13T20:09:44.485Z,71.10
2018-04-13T20:12:19.993Z,71.80
2018-04-13T20:14:52.591Z,71.70
2018-04-13T20:17:46.452Z,71.00
2018-04-13T20:20:19.056Z,70.60
2018-04-13T20:22:51.692Z,71.00
2018-04-13T20:25:25.059Z,70.70
2018-04-13T20:27:57.683Z,70.60
2018-04-13T20:30:31.089Z,71.10
2018-04-13T20:33:03.971Z,71.00
2018-04-13T20:35:48.264Z,71.10
2018-04-13T20:38:21.651Z,70.60
2018-04-13T20:40:54.244Z,70.50
2018-04-13T20:43:26.888Z,70.30
2018-04-13T20:45:59.503Z,70.20
2018-04-13T20:48:32.146Z,69.70
2018-04-13T20:51:05.516Z,70.50
2018-04-13T20:53:38.165Z,70.50
2018-04-13T20:56:10.773Z,70.50
2018-04-13T20:58:43.391Z,70.40
2018-04-13T21:01:16.016Z,70.50
2018-04-13T21:03:49.407Z,70.40
2018-04-13T21:06:22.007Z,70.40
2018-04-13T21:08:55.392Z,70.30
2018-04-13T21:11:28.007Z,70.20
2018-04-13T21:14:01.437Z,70.50
2018-04-13T21:16:34.039Z,70.50
2018-04-13T21:19:06.680Z,70.90
2018-04-13T21:21:39.295Z,70.90
2018-04-13T21:24:12.703Z,70.90
2018-04-13T21:26:45.304Z,70.80
2018-04-13T21:29:18.706Z,71.50
2018-04-13T21:31:52.091Z,71.90
2018-04-13T21:34:24.717Z,71.70
2018-04-13T21:36:58.096Z,72.40
2018-04-13T21:39:30.751Z,72.40
2018-04-13T21:42:03.358Z,73.00
2018-04-13T21:44:36.004Z,73.20
2018-04-13T21:47:08.603Z,73.70
2018-04-13T21:49:41.228Z,74.10
2018-04-13T21:52:13.840Z,73.60
2018-04-13T21:54:46.500Z,74.00
2018-04-13T21:57:19.112Z,75.80
2018-04-13T21:59:51.756Z,76.20
2018-04-13T22:02:24.363Z,76.90
2018-04-13T22:04:56.983Z,77.70
2018-04-13T22:07:29.590Z,77.80
2018-04-13T22:10:02.225Z,78.00
2018-04-13T22:12:46.797Z,77.60
2018-04-13T22:15:26.267Z,78.00
2018-04-13T22:17:58.872Z,78.00
2018-04-13T22:20:31.491Z,77.70
2018-04-13T22:23:04.096Z,76.90
2018-04-13T22:25:36.741Z,78.80
2018-04-13T22:28:09.353Z,79.50
2018-04-13T22:30:41.995Z,79.30
2018-04-13T22:33:14.616Z,80.30
2018-04-13T22:35:47.263Z,80.50
2018-04-13T22:38:20.635Z,81.60
2018-04-13T22:40:53.259Z,81.60
2018-04-13T22:43:26.627Z,80.50
2018-04-13T22:45:59.274Z,80.60
2018-04-13T22:48:32.644Z,82.60
2018-04-13T22:51:05.288Z,82.60
2018-04-13T22:53:37.893Z,81.60
2018-04-13T22:56:10.515Z,83.00
2018-04-13T22:58:43.117Z,82.20
2018-04-13T23:01:15.768Z,83.40
2018-04-13T23:03:48.372Z,84.40
2018-04-13T23:06:21.020Z,85.30
2018-04-13T23:08:54.400Z,87.30
2018-04-13T23:11:27.037Z,87.30
2018-04-13T23:13:59.647Z,87.20
2018-04-13T23:16:32.295Z,87.50
2018-04-13T23:19:05.713Z,87.80
2018-04-13T23:21:38.330Z,87.80
2018-04-13T23:24:10.967Z,87.90
2018-04-13T23:26:43.613Z,87.40
2018-04-13T23:29:16.211Z,85.90
2018-04-13T23:31:48.832Z,86.30
2018-04-13T23:34:21.436Z,86.20
2018-04-13T23:36:54.057Z,87.10
2018-04-13T23:39:27.587Z,86.80
2018-04-13T23:42:00.332Z,86.80
2018-04-13T23:44:32.937Z,87.40
2018-04-13T23:47:06.351Z,85.80
2018-04-13T23:49:39.719Z,84.40
2018-04-13T23:52:12.353Z,84.40
2018-04-13T23:54:45.731Z,83.40
2018-04-13T23:57:18.363Z,83.40
2018-04-13T23:59:51.753Z,83.30
